Time;durP1;ratioP1;P1;durP2;ratioP2;P2;SDS_P1;SDS_P2;PMS_P1;PMS_P2;Temp;Humidity;BMP_temperature;BMP_pressure;BME280_temperature;BME280_humidity;BME280_pressure;Samples;Min_cycle;Max_cycle;Signal;HPM_P1;HPM_P2
2023/03/20 00:01:20;;;;;;;0.20;0.20;;;;;;;19.03;45.44;101592.09;5114374;28;20047;-37
2023/03/20 00:03:46;;;;;;;0.30;0.30;;;;;;;19.03;45.20;101592.09;5114374;28;20304;-37
2023/03/20 00:06:15;;;;;;;0.20;0.20;;;;;;;19.04;45.08;101601.19;5116174;27;20051;-37
2023/03/20 00:08:44;;;;;;;0.30;0.30;;;;;;;19.03;45.38;101594.00;5114454;28;20463;-37
2023/03/20 00:11:30;;;;;;;;;;;;;;;19.03;45.22;101610.56;5113817;28;20342;-36
2023/03/20 00:13:58;;;;;;;0.20;0.20;;;;;;;19.03;45.30;101605.88;5108348;28;19919;-37
2023/03/20 00:16:28;;;;;;;0.20;0.20;;;;;;;19.02;45.06;101604.22;5076076;28;20058;-37
2023/03/20 00:18:55;;;;;;;0.20;0.20;;;;;;;19.03;45.28;101607.81;5116299;28;20054;-37
2023/03/20 00:21:21;;;;;;;0.30;0.30;;;;;;;19.02;45.50;101609.75;5116032;27;20539;-37
2023/03/20 00:23:46;;;;;;;0.20;0.20;;;;;;;19.03;45.13;101610.56;5112891;28;20078;-37
2023/03/20 00:26:18;;;;;;;0.20;0.20;;;;;;;19.03;45.30;101611.41;5114371;28;20369;-37
2023/03/20 00:28:45;;;;;;;0.30;0.30;;;;;;;19.04;45.23;101609.47;5114187;28;20411;-37
2023/03/20 00:31:21;;;;;;;0.28;0.28;;;;;;;19.04;45.22;101610.34;5108319;27;20096;-37
2023/03/20 00:33:47;;;;;;;0.20;0.20;;;;;;;19.04;45.14;101613.09;5114385;28;20877;-37
2023/03/20 00:36:12;;;;;;;0.30;0.30;;;;;;;19.03;45.10;101605.88;5114957;27;20136;-37
2023/03/20 00:38:38;;;;;;;0.30;0.30;;;;;;;19.03;45.14;101603.13;5115564;27;20051;-37
2023/03/20 00:41:22;;;;;;;0.30;0.30;;;;;;;19.04;45.37;101606.72;5100904;28;20047;-37
2023/03/20 00:43:51;;;;;;;0.30;0.30;;;;;;;19.04;45.46;101610.34;5096935;28;20039;-37
2023/03/20 00:46:17;;;;;;;0.30;0.30;;;;;;;19.04;45.05;101610.34;5097159;28;20081;-37
2023/03/20 00:48:43;;;;;;;0.30;0.30;;;;;;;19.03;45.13;101614.16;5114650;28;20051;-36
2023/03/20 00:51:08;;;;;;;0.30;0.30;;;;;;;19.04;45.42;101612.22;5115504;28;20529;-37
2023/03/20 00:53:34;;;;;;;0.30;0.30;;;;;;;19.04;45.37;101610.34;5113705;28;20043;-37
2023/03/20 00:56:00;;;;;;;0.20;0.20;;;;;;;19.04;45.23;101603.94;5114507;27;20138;-37
2023/03/20 00:58:26;;;;;;;0.30;0.30;;;;;;;19.04;45.46;101596.53;5115259;28;20130;-37
2023/03/20 01:00:51;;;;;;;0.30;0.30;;;;;;;19.03;45.51;101592.09;5114755;27;20284;-37
2023/03/20 01:03:22;;;;;;;0.20;0.20;;;;;;;19.04;45.37;101601.19;5114887;28;20047;-37
2023/03/20 01:05:49;;;;;;;0.20;0.20;;;;;;;19.03;45.36;101594.84;5115766;28;20043;-37
2023/03/20 01:08:21;;;;;;;0.20;0.20;;;;;;;19.04;45.12;101590.16;5116964;28;20050;-37
2023/03/20 01:10:50;;;;;;;0.20;0.20;;;;;;;19.04;45.31;101588.25;5116585;28;20479;-37
2023/03/20 01:13:20;;;;;;;0.30;0.30;;;;;;;19.04;45.17;101585.50;5112437;28;20104;-36
2023/03/20 01:15:47;;;;;;;0.30;0.30;;;;;;;19.04;45.35;101584.63;5091638;28;20071;-37
2023/03/20 01:18:14;;;;;;;0.30;0.30;;;;;;;19.04;45.43;101587.38;5086307;28;20043;-37
2023/03/20 01:20:40;;;;;;;0.20;0.20;;;;;;;19.03;45.23;101581.03;5118175;28;20393;-37
2023/03/20 01:23:06;;;;;;;0.30;0.30;;;;;;;19.04;45.33;101584.63;5099475;28;20100;-37
2023/03/20 01:25:32;;;;;;;0.30;0.30;;;;;;;19.04;45.29;101574.44;5118209;27;20055;-37
2023/03/20 01:27:58;;;;;;;0.20;0.20;;;;;;;19.03;45.27;101570.00;5115948;28;20134;-37
2023/03/20 01:30:26;;;;;;;0.20;0.20;;;;;;;19.03;45.09;101572.75;5117693;28;20039;-37
2023/03/20 01:32:52;;;;;;;0.30;0.30;;;;;;;19.05;45.37;101575.28;5105520;27;20325;-36
2023/03/20 01:35:22;;;;;;;0.20;0.20;;;;;;;19.04;45.51;101563.41;5117244;28;20478;-37
2023/03/20 01:37:49;;;;;;;0.30;0.30;;;;;;;19.03;45.47;101561.72;5099539;28;20043;-36
2023/03/20 01:40:41;;;;;;;0.20;0.20;;;;;;;19.03;45.33;101556.19;5110125;27;20071;-37
2023/03/20 01:43:17;;;;;;;0.25;0.25;;;;;;;19.05;45.15;101551.25;5080522;28;20055;-37
2023/03/20 01:45:59;;;;;;;0.20;0.20;;;;;;;19.04;45.09;101555.13;5118090;28;20265;-37
2023/03/20 01:48:35;;;;;;;0.30;0.30;;;;;;;19.03;45.40;101558.97;5117081;28;20047;-37
2023/03/20 01:51:01;;;;;;;0.30;0.30;;;;;;;19.04;45.42;101552.38;5116208;28;20075;-37
2023/03/20 01:53:27;;;;;;;0.20;0.20;;;;;;;19.04;45.29;101557.88;5118002;28;20094;-37
2023/03/20 01:55:55;;;;;;;0.30;0.30;;;;;;;19.04;45.44;101563.41;5116384;28;20232;-37
2023/03/20 01:58:25;;;;;;;0.25;0.25;;;;;;;19.05;45.36;101569.75;5117757;27;20043;-36
2023/03/20 02:00:52;;;;;;;0.30;0.30;;;;;;;19.05;45.41;101570.59;5116465;27;20506;-37
2023/03/20 02:03:18;;;;;;;0.20;0.20;;;;;;;19.04;45.43;101568.94;5118009;27;20815;-37
2023/03/20 02:05:44;;;;;;;0.20;0.20;;;;;;;19.05;45.24;101573.34;5117900;27;20557;-37
2023/03/20 02:08:31;;;;;;;0.20;0.20;;;;;;;19.05;45.25;101583.56;5117635;27;20050;-37
2023/03/20 02:10:58;;;;;;;0.20;0.20;;;;;;;19.05;45.44;101575.28;5115152;28;20043;-37
2023/03/20 02:13:26;;;;;;;0.20;0.20;;;;;;;19.04;45.36;101591.00;5071345;28;20052;-36
2023/03/20 02:16:12;;;;;;;0.20;0.20;;;;;;;19.05;45.35;101578.88;5078442;28;20157;-37
2023/03/20 02:18:41;;;;;;;0.30;0.30;;;;;;;19.04;45.45;101573.59;5098108;28;20373;-37
2023/03/20 02:21:46;;;;;;;0.20;0.20;;;;;;;19.04;45.16;101566.16;5115928;28;20116;-36
2023/03/20 02:24:32;;;;;;;0.20;0.20;;;;;;;19.05;45.32;101564.22;5104479;28;20078;-37
2023/03/20 02:27:38;;;;;;;0.20;0.20;;;;;;;19.04;45.33;101565.31;5117218;27;20066;-37
2023/03/20 02:33:16;;;;;;;0.20;0.20;;;;;;;19.05;45.16;101567.00;5155625;27;20120;-37
2023/03/20 02:38:37;;;;;;;0.30;0.30;;;;;;;19.04;45.43;101559.78;5165262;27;20124;-37
2023/03/20 02:41:13;;;;;;;0.20;0.20;;;;;;;19.05;45.45;101567.00;5167916;27;20069;-40
2023/03/20 02:44:04;;;;;;;0.30;0.30;;;;;;;19.05;45.42;101575.28;5174278;27;20226;-37
2023/03/20 02:46:50;;;;;;;0.30;0.30;;;;;;;19.05;45.36;101589.91;5158720;27;20646;-37
2023/03/20 02:49:53;;;;;;;0.25;0.25;;;;;;;19.04;45.48;101582.72;5152553;27;20084;-37
2023/03/20 02:55:29;;;;;;;0.20;0.20;;;;;;;19.09;45.24;101576.41;5173156;27;20360;-37
2023/03/20 02:58:06;;;;;;;0.20;0.20;;;;;;;19.09;45.24;101581.09;5138557;27;20532;-37
2023/03/20 03:00:35;;;;;;;0.20;0.20;;;;;;;19.07;45.38;101583.28;5133351;27;20327;-37
2023/03/20 03:03:19;;;;;;;0.30;0.30;;;;;;;19.06;45.20;101593.50;5152584;27;20050;-36
2023/03/20 03:05:56;;;;;;;0.30;0.30;;;;;;;19.07;45.28;101594.31;5134739;27;20066;-37
2023/03/20 03:08:25;;;;;;;0.30;0.30;;;;;;;19.06;45.25;101587.97;5152306;27;20047;-37
2023/03/20 03:10:54;;;;;;;0.30;0.30;;;;;;;19.05;45.17;101578.88;5133333;27;20546;-37
2023/03/20 03:13:25;;;;;;;0.25;0.25;;;;;;;19.07;45.13;101573.06;5131053;27;20568;-37
2023/03/20 03:15:53;;;;;;;0.20;0.20;;;;;;;19.06;45.01;101560.38;5153190;27;20050;-37
2023/03/20 03:18:21;;;;;;;0.30;0.30;;;;;;;19.05;45.21;101545.75;5152963;27;20122;-37
2023/03/20 03:20:47;;;;;;;;;;;;;;;19.05;45.40;101540.22;5139818;27;20253;-37
2023/03/20 03:23:22;;;;;;;0.30;0.30;;;;;;;19.04;45.65;101544.09;5152367;27;20189;-37
2023/03/20 03:25:50;;;;;;;0.20;0.20;;;;;;;19.05;45.16;101547.66;5153173;27;20061;-37
2023/03/20 03:28:36;;;;;;;0.20;0.20;;;;;;;19.06;45.15;101549.31;5134837;27;20560;-37
2023/03/20 03:31:05;;;;;;;0.20;0.20;;;;;;;19.05;45.59;101567.81;5149387;27;20251;-37
2023/03/20 03:33:34;;;;;;;0.20;0.20;;;;;;;19.05;45.28;101587.16;5113277;27;20575;-36
2023/03/20 03:36:09;;;;;;;0.30;0.30;;;;;;;19.05;45.23;101589.91;5113006;27;20082;-37
2023/03/20 03:39:14;;;;;;;0.30;0.30;;;;;;;19.05;45.23;101587.16;5122086;27;20482;-37
2023/03/20 03:41:44;;;;;;;0.30;0.30;;;;;;;19.05;45.50;101587.16;5135325;27;20434;-37
2023/03/20 03:44:34;;;;;;;0.20;0.20;;;;;;;19.05;45.24;101589.91;5134290;27;20050;-37
2023/03/20 03:47:20;;;;;;;0.20;0.20;;;;;;;19.05;45.49;101600.94;5133278;27;20557;-37
2023/03/20 03:49:52;;;;;;;0.30;0.30;;;;;;;19.06;45.25;101596.25;5131405;27;20075;-37
2023/03/20 03:52:21;;;;;;;0.20;0.20;;;;;;;19.05;45.17;101573.34;5113167;27;20062;-37
2023/03/20 03:54:53;;;;;;;0.30;0.30;;;;;;;19.06;45.20;101576.94;5131389;27;20057;-37
2023/03/20 03:57:25;;;;;;;0.30;0.30;;;;;;;19.07;45.29;101577.75;5113432;27;20241;-37
2023/03/20 03:59:51;;;;;;;0.30;0.30;;;;;;;19.06;45.50;101582.44;5099854;27;20058;-37
2023/03/20 04:02:18;;;;;;;0.20;0.20;;;;;;;19.05;45.08;101589.91;5132033;27;20042;-36
2023/03/20 04:04:47;;;;;;;0.30;0.30;;;;;;;19.06;45.46;101582.44;5128382;27;20055;-37
2023/03/20 04:07:14;;;;;;;0.30;0.30;;;;;;;19.07;45.37;101586.03;5118123;28;20403;-37
2023/03/20 04:09:40;;;;;;;0.25;0.25;;;;;;;19.06;45.42;101585.22;5080576;28;20410;-37
2023/03/20 04:12:07;;;;;;;0.22;0.22;;;;;;;19.06;45.12;101574.16;5110986;27;20544;-37
2023/03/20 04:14:33;;;;;;;0.20;0.20;;;;;;;19.06;44.98;101574.16;5138294;27;20436;-37
2023/03/20 04:16:59;;;;;;;0.30;0.30;;;;;;;19.05;45.32;101573.34;5138291;27;20733;-37
2023/03/20 04:19:24;;;;;;;0.30;0.30;;;;;;;19.06;45.24;101565.88;5104828;27;20058;-37
2023/03/20 04:21:50;;;;;;;0.30;0.30;;;;;;;19.07;45.13;101555.69;5114153;28;20081;-38
2023/03/20 04:24:16;;;;;;;0.30;0.30;;;;;;;19.07;45.28;101558.44;5117477;27;20262;-37
2023/03/20 04:26:42;;;;;;;0.30;0.30;;;;;;;19.05;45.37;101554.03;5117640;27;20046;-37
2023/03/20 04:29:07;;;;;;;0.30;0.30;;;;;;;19.06;45.19;101557.59;5103299;27;20554;-37
2023/03/20 04:31:33;;;;;;;0.30;0.30;;;;;;;19.06;45.43;101549.31;5096718;28;20043;-37
2023/03/20 04:33:59;;;;;;;0.30;0.30;;;;;;;19.07;45.09;101552.91;5096228;28;20044;-37
2023/03/20 04:36:25;;;;;;;0.30;0.30;;;;;;;19.07;45.51;101550.16;5095728;28;20414;-37
2023/03/20 04:38:50;;;;;;;0.30;0.30;;;;;;;19.05;45.30;101554.03;5116100;28;20058;-37
2023/03/20 04:41:16;;;;;;;0.30;0.30;;;;;;;19.06;45.20;101560.38;5097992;27;20044;-37
2023/03/20 04:43:41;;;;;;;0.30;0.30;;;;;;;19.05;45.20;101565.06;5096777;28;20107;-37
2023/03/20 04:46:07;;;;;;;0.25;0.25;;;;;;;19.06;45.51;101568.66;5112662;28;20050;-37
2023/03/20 04:48:33;;;;;;;0.30;0.30;;;;;;;19.05;45.15;101567.81;5116660;28;20066;-37
2023/03/20 04:50:59;;;;;;;0.30;0.30;;;;;;;19.07;45.35;101561.19;5116096;27;20055;-36
2023/03/20 04:53:24;;;;;;;0.30;0.30;;;;;;;19.06;45.38;101557.59;5116316;28;20054;-37
2023/03/20 04:55:52;;;;;;;0.20;0.20;;;;;;;19.06;45.20;101560.38;5117111;28;20541;-36
2023/03/20 04:58:18;;;;;;;0.30;0.30;;;;;;;19.05;45.25;101556.78;5116952;28;20143;-38
2023/03/20 05:00:44;;;;;;;0.30;0.30;;;;;;;19.06;45.16;101560.38;5116785;28;20043;-37
2023/03/20 05:03:10;;;;;;;0.30;0.30;;;;;;;19.06;45.49;101554.84;5117283;28;20298;-37
2023/03/20 05:05:36;;;;;;;0.30;0.30;;;;;;;19.06;45.46;101560.38;5117308;28;20064;-37
2023/03/20 05:08:04;;;;;;;0.30;0.30;;;;;;;19.06;45.13;101560.38;5116936;28;20050;-37
2023/03/20 05:10:30;;;;;;;0.20;0.20;;;;;;;19.06;45.40;101560.38;5109242;28;20354;-37
2023/03/20 05:12:56;;;;;;;0.30;0.30;;;;;;;19.06;45.34;101554.84;5122420;27;20574;-37
2023/03/20 05:15:21;;;;;;;0.30;0.30;;;;;;;19.07;45.40;101550.16;5137087;27;20467;-37
2023/03/20 05:17:48;;;;;;;0.20;0.20;;;;;;;19.07;45.38;101553.75;5129807;27;20044;-37
2023/03/20 05:20:17;;;;;;;0.30;0.30;;;;;;;19.07;45.44;101553.75;5096388;28;20139;-37
2023/03/20 05:22:42;;;;;;;0.30;0.30;;;;;;;19.07;45.23;101550.97;5105281;28;20058;-37
2023/03/20 05:25:08;;;;;;;0.30;0.30;;;;;;;19.07;45.20;101553.75;5115985;27;20051;-37
2023/03/20 05:27:34;;;;;;;0.30;0.30;;;;;;;19.06;45.16;101552.09;5115527;28;20047;-37
2023/03/20 05:29:59;;;;;;;0.30;0.30;;;;;;;19.08;45.27;101554.56;5096004;28;20052;-37
2023/03/20 05:32:25;;;;;;;0.30;0.30;;;;;;;19.06;45.34;101560.38;5095963;28;20074;-37
2023/03/20 05:34:51;;;;;;;0.30;0.30;;;;;;;19.07;45.45;101563.97;5095593;28;20108;-36
2023/03/20 05:37:17;;;;;;;0.30;0.30;;;;;;;19.07;45.11;101559.25;5095246;28;20039;-37
2023/03/20 05:39:43;;;;;;;0.30;0.30;;;;;;;19.07;45.40;101561.19;5107577;28;20498;-37
2023/03/20 05:42:08;;;;;;;0.30;0.30;;;;;;;19.07;45.13;101559.25;5115155;28;20054;-37
2023/03/20 05:44:34;;;;;;;0.30;0.30;;;;;;;19.06;45.33;101557.59;5113715;27;20055;-37
2023/03/20 05:47:00;;;;;;;0.30;0.30;;;;;;;19.07;45.16;101564.78;5109535;28;20415;-37
2023/03/20 05:49:25;;;;;;;0.30;0.30;;;;;;;19.07;45.21;101558.44;5112364;28;20039;-37
2023/03/20 05:51:51;;;;;;;0.30;0.30;;;;;;;19.07;45.42;101561.19;5101192;28;20047;-36
2023/03/20 05:54:17;;;;;;;0.20;0.20;;;;;;;19.08;45.32;101560.09;5103658;28;20171;-37
2023/03/20 05:56:42;;;;;;;0.30;0.30;;;;;;;19.08;45.14;101562.84;5096449;28;20164;-37
2023/03/20 05:59:10;;;;;;;0.30;0.30;;;;;;;19.07;45.12;101558.44;5094323;28;20054;-37
2023/03/20 06:01:35;;;;;;;0.30;0.30;;;;;;;19.07;45.21;101558.44;5109640;28;20043;-37
2023/03/20 06:04:01;;;;;;;0.30;0.30;;;;;;;19.07;45.48;101553.75;5097394;28;20053;-37
2023/03/20 06:06:27;;;;;;;0.30;0.30;;;;;;;19.07;45.20;101561.19;5100548;28;20076;-37
2023/03/20 06:08:53;;;;;;;0.30;0.30;;;;;;;19.08;45.16;101562.84;5107116;28;20043;-37
2023/03/20 06:11:20;;;;;;;0.40;0.40;;;;;;;19.08;45.30;101558.16;5122276;27;20042;-37
2023/03/20 06:13:45;;;;;;;0.28;0.28;;;;;;;19.08;45.04;101555.41;5122440;27;20531;-37
2023/03/20 06:16:11;;;;;;;0.22;0.22;;;;;;;19.07;45.32;101553.75;5101173;28;20051;-37
2023/03/20 06:18:38;;;;;;;0.30;0.30;;;;;;;19.07;45.29;101550.97;5102833;28;20046;-37
2023/03/20 06:21:04;;;;;;;0.30;0.30;;;;;;;19.06;45.12;101557.59;5098018;28;20078;-37
2023/03/20 06:23:30;;;;;;;0.30;0.30;;;;;;;19.07;45.33;101553.75;5094206;28;20075;-37
2023/03/20 06:25:56;;;;;;;0.30;0.30;;;;;;;19.07;45.45;101558.44;5109294;28;20107;-37
2023/03/20 06:28:21;;;;;;;0.30;0.30;;;;;;;19.06;45.17;101557.59;5112358;27;20039;-37
2023/03/20 06:30:52;;;;;;;0.20;0.20;;;;;;;19.11;45.49;101557.63;5096452;28;20039;-36
2023/03/20 06:33:17;;;;;;;0.20;0.20;;;;;;;19.10;45.13;101555.97;5089811;28;20466;-37
2023/03/20 06:35:45;;;;;;;0.30;0.30;;;;;;;19.10;45.21;101566.19;5094977;28;20047;-37
2023/03/20 06:38:10;;;;;;;0.30;0.30;;;;;;;19.08;45.33;101563.69;5108204;28;20316;-37
2023/03/20 06:40:36;;;;;;;0.30;0.30;;;;;;;19.09;45.43;101564.53;5106279;28;20051;-37
2023/03/20 06:43:02;;;;;;;0.30;0.30;;;;;;;19.10;45.35;101574.47;5109659;28;20178;-37
2023/03/20 06:45:27;;;;;;;0.30;0.30;;;;;;;19.12;45.39;101572.28;5112557;28;20047;-37
2023/03/20 06:47:53;;;;;;;0.30;0.30;;;;;;;19.13;45.58;101577.53;5104194;28;20035;-37
2023/03/20 06:50:19;;;;;;;0.20;0.20;;;;;;;19.12;45.16;101595.19;5096485;28;20465;-36
2023/03/20 06:52:45;;;;;;;0.30;0.30;;;;;;;19.12;45.39;101594.34;5101634;28;20095;-37
2023/03/20 06:55:11;;;;;;;0.30;0.30;;;;;;;19.21;45.31;101607.44;5088368;28;20050;-38
2023/03/20 06:57:37;;;;;;;0.30;0.30;;;;;;;19.25;45.49;101599.44;5102782;28;20718;-38
2023/03/20 07:00:04;;;;;;;0.30;0.30;;;;;;;19.20;45.68;101615.97;5081872;28;20571;-36
2023/03/20 07:02:30;;;;;;;0.28;0.28;;;;;;;19.17;45.51;101613.72;5089678;28;20569;-37
2023/03/20 07:04:56;;;;;;;0.30;0.30;;;;;;;19.14;45.60;101615.09;5089260;28;20427;-37
2023/03/20 07:07:22;;;;;;;0.30;0.30;;;;;;;19.15;45.51;101619.50;5097596;28;20091;-36
2023/03/20 07:09:48;;;;;;;0.30;0.30;;;;;;;19.15;45.57;101626.97;5110370;28;20047;-37
2023/03/20 07:12:15;;;;;;;0.30;0.30;;;;;;;19.15;45.56;101627.81;5105768;28;20076;-37
2023/03/20 07:14:41;;;;;;;0.30;0.30;;;;;;;19.14;45.84;101625.31;5102654;28;20082;-40
2023/03/20 07:17:08;;;;;;;0.30;0.30;;;;;;;19.15;45.63;101621.44;5083112;28;20144;-39
2023/03/20 07:19:35;;;;;;;0.30;0.30;;;;;;;19.15;45.80;101624.22;5099643;28;20488;-39
2023/03/20 07:22:05;;;;;;;0.30;0.30;;;;;;;19.16;45.79;101625.88;5103594;28;20245;-39
2023/03/20 07:24:31;;;;;;;0.20;0.20;;;;;;;19.15;45.82;101622.28;5086974;28;20730;-39
2023/03/20 07:26:57;;;;;;;0.30;0.30;;;;;;;19.16;45.59;101620.34;5113555;28;20047;-39
2023/03/20 07:29:23;;;;;;;0.30;0.30;;;;;;;19.16;45.33;101631.38;5105030;27;20459;-39
2023/03/20 07:31:49;;;;;;;0.30;0.30;;;;;;;19.17;45.50;101624.75;5099190;28;20430;-39
2023/03/20 07:34:14;;;;;;;0.30;0.30;;;;;;;19.18;45.66;101618.16;5078757;28;20051;-40
2023/03/20 07:36:40;;;;;;;0.30;0.30;;;;;;;19.18;45.68;101620.94;5110848;28;20050;-40
2023/03/20 07:39:07;;;;;;;0.30;0.30;;;;;;;19.12;43.57;101622.78;5068395;28;20142;-43
2023/03/20 07:41:33;;;;;;;0.30;0.30;;;;;;;19.16;44.26;101628.63;5092519;28;20070;-39
2023/03/20 07:43:59;;;;;;;0.25;0.25;;;;;;;19.20;44.66;101627.00;5102565;27;20086;-41
2023/03/20 07:46:25;;;;;;;0.30;0.30;;;;;;;19.21;44.73;101631.44;5099467;27;20079;-39
2023/03/20 07:48:51;;;;;;;0.30;0.30;;;;;;;19.22;44.98;101624.81;5074978;28;21040;-39
2023/03/20 07:51:17;;;;;;;0.30;0.30;;;;;;;19.21;45.04;101632.28;5098489;27;20035;-39
2023/03/20 07:53:42;;;;;;;0.30;0.30;;;;;;;19.22;44.96;101635.88;5077927;28;20062;-39
2023/03/20 07:56:08;;;;;;;0.30;0.30;;;;;;;19.21;44.96;101636.94;5103111;28;20502;-39
2023/03/20 07:58:35;;;;;;;0.20;0.20;;;;;;;19.21;45.15;101635.06;5097190;28;20113;-39
2023/03/20 08:01:02;;;;;;;0.30;0.30;;;;;;;19.22;45.22;101645.00;5102005;28;20453;-39
2023/03/20 08:03:28;;;;;;;0.22;0.22;;;;;;;19.22;45.01;101646.91;5099072;28;20071;-39
2023/03/20 08:05:54;;;;;;;0.30;0.30;;;;;;;19.23;45.36;101648.56;5068130;28;20039;-39
2023/03/20 08:08:20;;;;;;;0.30;0.30;;;;;;;19.23;44.16;101657.69;5082448;28;20309;-39
2023/03/20 08:10:47;;;;;;;0.22;0.22;;;;;;;19.24;44.61;101645.53;5072751;28;20039;-40
2023/03/20 08:13:12;;;;;;;0.30;0.30;;;;;;;19.24;45.06;101648.31;5092558;28;20051;-40
2023/03/20 08:15:38;;;;;;;0.20;0.20;;;;;;;19.25;45.26;101649.97;5098138;28;20040;-39
2023/03/20 08:18:04;;;;;;;0.30;0.30;;;;;;;19.26;45.17;101650.81;5104810;28;20520;-39
2023/03/20 08:20:30;;;;;;;0.30;0.30;;;;;;;19.25;44.86;101647.19;5105584;28;20164;-39
2023/03/20 08:22:56;;;;;;;0.30;0.30;;;;;;;19.26;44.94;101648.88;5103194;28;20055;-39
2023/03/20 08:25:22;;;;;;;0.30;0.30;;;;;;;19.25;45.16;101655.47;5108923;27;20435;-39
2023/03/20 08:27:48;;;;;;;0.30;0.30;;;;;;;19.27;45.17;101653.31;5103998;28;20044;-39
2023/03/20 08:30:14;;;;;;;0.30;0.30;;;;;;;19.27;45.10;101652.47;5088333;28;20039;-39
2023/03/20 08:32:40;;;;;;;0.30;0.30;;;;;;;19.27;45.07;101652.47;5083395;28;20555;-40
2023/03/20 08:35:07;;;;;;;0.30;0.30;;;;;;;19.28;44.96;101654.13;5098311;27;20543;-39
2023/03/20 08:37:39;;;;;;;0.30;0.30;;;;;;;19.27;45.05;101646.97;5087556;28;20095;-39
2023/03/20 08:40:05;;;;;;;0.30;0.30;;;;;;;19.28;44.93;101654.13;5101501;28;20055;-39
2023/03/20 08:42:31;;;;;;;0.30;0.30;;;;;;;19.28;45.28;101654.97;5101106;28;20864;-40
2023/03/20 08:44:56;;;;;;;0.30;0.30;;;;;;;19.29;44.96;101650.28;5083917;27;20521;-39
2023/03/20 08:47:22;;;;;;;0.30;0.30;;;;;;;19.28;45.18;101651.38;5110221;27;20047;-39
2023/03/20 08:49:47;;;;;;;0.30;0.30;;;;;;;19.29;45.11;101650.28;5105395;28;20042;-41
2023/03/20 08:52:13;;;;;;;0.20;0.20;;;;;;;19.30;45.27;101652.78;5109400;27;20495;-39
2023/03/20 08:54:39;;;;;;;0.30;0.30;;;;;;;19.31;45.12;101650.84;5107577;28;20051;-39
2023/03/20 08:57:05;;;;;;;0.30;0.30;;;;;;;19.30;45.10;101658.31;5103732;28;20067;-43
2023/03/20 08:59:31;;;;;;;0.30;0.30;;;;;;;19.30;45.14;101650.03;5105887;28;20039;-39
2023/03/20 09:01:57;;;;;;;0.30;0.30;;;;;;;19.31;45.33;101661.91;5095548;28;20574;-40
2023/03/20 09:04:24;;;;;;;0.20;0.20;;;;;;;19.32;45.12;101659.97;5099124;28;20039;-40
2023/03/20 09:06:50;;;;;;;0.30;0.30;;;;;;;19.30;45.28;101661.06;5094712;28;20378;-38
2023/03/20 09:09:18;;;;;;;0.20;0.20;;;;;;;19.31;45.22;101661.91;5097465;28;20074;-37
2023/03/20 09:11:45;;;;;;;0.30;0.30;;;;;;;19.33;44.97;101656.09;5091937;28;20119;-37
2023/03/20 09:14:10;;;;;;;0.30;0.30;;;;;;;19.33;45.09;101661.63;5091652;28;20458;-37
2023/03/20 09:16:36;;;;;;;0.30;0.30;;;;;;;19.33;45.13;101650.59;5096400;28;20078;-37
2023/03/20 09:19:02;;;;;;;0.20;0.20;;;;;;;19.34;45.17;101660.53;5095548;28;20476;-37
2023/03/20 09:21:28;;;;;;;0.20;0.20;;;;;;;19.32;45.15;101652.50;5098595;27;20181;-39
2023/03/20 09:23:54;;;;;;;0.30;0.30;;;;;;;19.34;44.87;101661.34;5095686;28;20506;-37
2023/03/20 09:26:19;;;;;;;0.20;0.20;;;;;;;19.34;45.15;101660.53;5097778;28;20165;-37
2023/03/20 09:28:45;;;;;;;0.30;0.30;;;;;;;19.33;45.21;101659.69;5098911;28;20043;-38
2023/03/20 09:31:11;;;;;;;0.30;0.30;;;;;;;19.32;45.28;101663.56;5102125;28;20054;-39
2023/03/20 09:33:36;;;;;;;0.30;0.30;;;;;;;19.33;45.14;101658.88;5093432;28;20415;-37
2023/03/20 09:36:02;;;;;;;0.25;0.25;;;;;;;19.33;45.00;101656.09;5084134;27;20047;-37
2023/03/20 09:38:28;;;;;;;0.28;0.28;;;;;;;19.33;45.17;101662.47;5093708;28;20040;-37
2023/03/20 09:40:58;;;;;;;0.30;0.30;;;;;;;19.31;43.89;101653.63;5091364;27;20054;-37
2023/03/20 09:43:48;;;;;;;0.20;0.20;;;;;;;19.35;44.67;101649.22;5103042;27;20182;-39
2023/03/20 09:46:38;;;;;;;0.30;0.30;;;;;;;19.36;44.53;101652.81;5081735;27;20051;-37
2023/03/20 09:51:52;;;;;;;0.30;0.30;;;;;;;19.35;44.72;101654.75;5162279;27;20128;-37
2023/03/20 09:54:27;;;;;;;0.30;0.30;;;;;;;19.34;44.62;101653.06;5128408;27;20333;-37
2023/03/20 09:56:54;;;;;;;0.30;0.30;;;;;;;19.37;44.80;101665.53;5137756;27;20042;-37
2023/03/20 09:59:20;;;;;;;0.20;0.20;;;;;;;19.36;44.73;101655.59;5129023;27;20105;-37
2023/03/20 10:01:49;;;;;;;0.30;0.30;;;;;;;19.37;45.10;101657.25;5142194;27;20046;-37
2023/03/20 10:04:15;;;;;;;0.30;0.30;;;;;;;19.36;44.76;101664.69;5106620;27;20050;-37
2023/03/20 10:06:41;;;;;;;0.30;0.30;;;;;;;19.38;45.05;101669.94;5125012;27;20042;-37
2023/03/20 10:09:17;;;;;;;0.20;0.20;;;;;;;19.37;44.91;101666.34;5138074;27;20275;-37
2023/03/20 10:11:58;;;;;;;0.20;0.20;;;;;;;19.37;44.83;101662.78;5119183;27;20046;-37
2023/03/20 10:14:35;;;;;;;0.20;0.20;;;;;;;19.37;44.73;101658.06;5139670;27;20482;-37
2023/03/20 10:17:08;;;;;;;0.20;0.20;;;;;;;19.38;44.71;101659.72;5118332;27;20038;-37
2023/03/20 10:19:44;;;;;;;0.20;0.20;;;;;;;19.38;45.03;101656.13;5143038;27;20494;-37
2023/03/20 10:24:58;;;;;;;0.30;0.30;;;;;;;19.39;44.99;101663.34;5165219;27;20116;-36
2023/03/20 10:27:26;;;;;;;0.30;0.30;;;;;;;19.40;44.90;101663.06;5123821;27;20065;-37
2023/03/20 10:30:33;;;;;;;0.30;0.30;;;;;;;19.40;44.60;101663.06;5101676;27;20047;-37
2023/03/20 10:33:11;;;;;;;0.30;0.30;;;;;;;19.40;44.56;101660.31;5119635;27;20047;-37
2023/03/20 10:35:49;;;;;;;0.30;0.30;;;;;;;19.43;44.75;101659.78;5124100;27;20061;-39
2023/03/20 10:38:26;;;;;;;0.30;0.30;;;;;;;19.44;45.34;101655.09;5117551;27;20039;-37
2023/03/20 10:40:52;;;;;;;0.30;0.30;;;;;;;19.44;45.28;101657.88;5128939;27;20445;-37
2023/03/20 10:43:26;;;;;;;0.30;0.30;;;;;;;19.44;45.78;101652.34;5127247;27;20070;-37
2023/03/20 10:45:59;;;;;;;0.30;0.30;;;;;;;19.44;45.29;101652.34;5129090;27;20051;-37
2023/03/20 10:48:30;;;;;;;0.20;0.20;;;;;;;19.43;45.73;101657.03;5129235;27;20482;-37
2023/03/20 10:51:00;;;;;;;0.20;0.20;;;;;;;19.44;45.65;101655.09;5125853;27;20078;-36
2023/03/20 10:53:37;;;;;;;0.20;0.20;;;;;;;19.44;45.55;101644.06;5130086;27;20297;-37
2023/03/20 10:56:06;;;;;;;0.30;0.30;;;;;;;19.43;45.40;101637.69;5145508;27;20744;-38
2023/03/20 10:58:36;;;;;;;0.30;0.30;;;;;;;19.44;45.26;101650.41;5138949;27;20035;-37
2023/03/20 11:01:02;;;;;;;0.30;0.30;;;;;;;19.45;45.42;101640.19;5123992;27;20053;-36
2023/03/20 11:03:29;;;;;;;0.30;0.30;;;;;;;19.45;45.45;101640.19;5119529;27;20078;-37
2023/03/20 11:06:03;;;;;;;0.30;0.30;;;;;;;19.46;45.39;101636.31;5128501;27;20080;-37
2023/03/20 11:08:39;;;;;;;0.30;0.30;;;;;;;19.45;45.44;101632.72;5136832;27;20046;-37
2023/03/20 11:11:05;;;;;;;0.30;0.30;;;;;;;19.43;44.02;101626.66;5131409;27;20046;-37
2023/03/20 11:13:34;;;;;;;0.30;0.30;;;;;;;19.46;44.83;101631.63;5132620;27;20047;-37
2023/03/20 11:16:29;;;;;;;0.30;0.30;;;;;;;19.47;44.89;101625.03;5129871;27;20054;-37
2023/03/20 11:18:55;;;;;;;0.30;0.30;;;;;;;19.47;45.09;101626.91;5125668;27;20047;-37
2023/03/20 11:21:25;;;;;;;0.30;0.30;;;;;;;19.46;44.87;101631.63;5121889;27;20230;-37
2023/03/20 11:23:51;;;;;;;0.30;0.30;;;;;;;19.45;45.05;101624.44;5133492;27;20051;-37
2023/03/20 11:26:37;;;;;;;0.30;0.30;;;;;;;19.47;44.93;101630.53;5111041;27;20066;-37
2023/03/20 11:29:06;;;;;;;0.20;0.20;;;;;;;19.49;45.20;101627.50;5134677;27;20501;-37
2023/03/20 11:31:40;;;;;;;0.30;0.30;;;;;;;19.33;42.62;101631.25;5131561;27;20046;-40
2023/03/20 11:36:57;;;;;;;0.30;0.30;;;;;;;19.47;44.23;101632.44;5139206;27;20124;-36
2023/03/20 11:39:36;;;;;;;0.30;0.30;;;;;;;19.48;44.28;101625.84;5101187;27;20058;-37
2023/03/20 11:42:02;;;;;;;0.30;0.30;;;;;;;19.47;44.61;101625.03;5098182;27;20077;-37
2023/03/20 11:44:31;;;;;;;0.30;0.30;;;;;;;19.48;44.53;101628.63;5106145;27;20516;-37
2023/03/20 11:47:03;;;;;;;0.30;0.30;;;;;;;19.48;44.34;101623.09;5090805;27;20063;-37
2023/03/20 11:49:31;;;;;;;0.30;0.30;;;;;;;19.48;44.34;101621.16;5109400;27;20110;-37
2023/03/20 11:52:01;;;;;;;0.30;0.30;;;;;;;19.48;44.71;101618.38;5110217;27;20072;-37
2023/03/20 11:54:28;;;;;;;0.22;0.22;;;;;;;19.50;44.78;101621.69;5101841;27;20117;-37